Time;durP1;ratioP1;P1;durP2;ratioP2;P2;SDS_P1;SDS_P2;PMS_P1;PMS_P2;Temp;Humidity;BMP_temperature;BMP_pressure;BME280_temperature;BME280_humidity;BME280_pressure;Samples;Min_cycle;Max_cycle;Signal;HPM_P1;HPM_P2
2022/01/20 00:01:19;;;;;;;20.43;6.67;;;5.70;99.90;;;;;;5075775;28;20455;-67
2022/01/20 00:03:46;;;;;;;25.30;5.50;;;5.70;99.90;;;;;;5075708;28;20502;-67
2022/01/20 00:07:01;;;;;;;18.77;5.77;;;5.60;99.90;;;;;;5075169;28;21025;-68
2022/01/20 00:09:31;;;;;;;24.87;6.37;;;5.50;99.90;;;;;;5075192;28;20998;-68
2022/01/20 00:23:10;;;;;;;22.20;5.97;;;5.40;99.90;;;;;;5036694;28;20505;-68
2022/01/20 00:23:29;;;;;;;26.03;5.83;;;5.20;99.90;;;;;;5075297;28;20405;-68
2022/01/20 00:26:00;;;;;;;22.00;5.80;;;5.30;99.90;;;;;;5074897;28;20830;-67
2022/01/20 00:28:39;;;;;;;24.27;6.23;;;5.20;99.90;;;;;;5075275;28;20433;-68
2022/01/20 00:31:14;;;;;;;31.30;6.33;;;5.20;99.90;;;;;;5074923;28;20788;-68
2022/01/20 00:33:45;;;;;;;20.43;6.60;;;5.20;99.90;;;;;;5075176;28;20494;-68
2022/01/20 00:38:57;;;;;;;24.10;7.97;;;5.20;99.90;;;;;;5075134;28;20396;-67
2022/01/20 00:41:24;;;;;;;30.83;5.53;;;5.20;99.90;;;;;;5074884;28;20468;-68
2022/01/20 00:43:50;;;;;;;17.37;5.93;;;5.20;99.90;;;;;;5074886;28;20494;-67
2022/01/20 00:46:17;;;;;;;25.43;6.27;;;5.10;99.90;;;;;;5074839;28;20480;-67
2022/01/20 00:48:44;;;;;;;20.93;7.20;;;5.00;99.90;;;;;;5074516;28;20938;-68
2022/01/20 00:51:11;;;;;;;22.23;5.13;;;5.10;99.90;;;;;;5074811;28;20452;-68
2022/01/20 00:53:39;;;;;;;22.27;5.50;;;5.10;99.90;;;;;;5074756;28;20536;-68
2022/01/20 00:56:07;;;;;;;20.73;5.97;;;5.00;99.90;;;;;;5074358;28;20994;-68
2022/01/20 00:58:33;;;;;;;27.00;6.53;;;5.00;99.90;;;;;;5074682;28;20444;-68
2022/01/20 01:01:00;;;;;;;33.83;5.90;;;5.00;99.90;;;;;;5074310;28;20437;-68
2022/01/20 01:03:27;;;;;;;19.23;5.00;;;5.00;99.90;;;;;;5074487;28;20445;-68
2022/01/20 01:06:06;;;;;;;18.40;5.10;;;5.00;99.90;;;;;;5074156;28;20504;-68
2022/01/20 01:08:32;;;;;;;23.73;5.60;;;5.00;99.90;;;;;;5074559;28;20452;-68
2022/01/20 01:10:59;;;;;;;21.80;5.63;;;5.00;99.90;;;;;;5074122;28;20933;-68
2022/01/20 01:13:29;;;;;;;23.53;5.47;;;5.00;99.90;;;;;;5074371;28;20440;-68
2022/01/20 01:15:55;;;;;;;23.67;6.97;;;5.00;99.90;;;;;;5073948;28;20469;-67
2022/01/20 01:21:13;;;;;;;26.30;5.47;;;5.00;99.90;;;;;;5074306;28;20403;-68
2022/01/20 01:23:43;;;;;;;23.03;7.00;;;5.00;99.90;;;;;;5074269;28;20439;-68
2022/01/20 01:26:12;;;;;;;23.93;5.10;;;4.90;99.90;;;;;;5074055;28;20484;-68
2022/01/20 01:28:41;;;;;;;20.60;5.67;;;4.90;99.90;;;;;;5073928;28;20452;-68
2022/01/20 01:33:55;;;;;;;25.77;5.93;;;4.90;99.90;;;;;;5064727;28;20433;-68
2022/01/20 01:36:23;;;;;;;24.03;7.50;;;5.00;99.90;;;;;;5074001;28;20524;-68
2022/01/20 01:38:50;;;;;;;31.33;6.70;;;4.90;99.90;;;;;;5074707;28;20440;-68
2022/01/20 01:41:28;;;;;;;33.27;6.00;;;5.00;99.90;;;;;;5073865;28;20441;-68
2022/01/20 01:44:00;;;;;;;43.33;6.13;;;5.00;99.90;;;;;;5073774;28;20523;-68
2022/01/20 01:46:27;;;;;;;28.33;6.63;;;5.00;99.90;;;;;;5073818;28;20551;-68
2022/01/20 01:48:54;;;;;;;21.60;6.77;;;5.00;99.90;;;;;;5073788;28;20448;-68
2022/01/20 01:51:21;;;;;;;20.67;5.80;;;5.00;99.90;;;;;;5073691;28;20460;-68
2022/01/20 01:53:48;;;;;;;23.07;5.67;;;5.00;99.90;;;;;;5073084;28;20455;-68
2022/01/20 01:56:14;;;;;;;29.83;5.60;;;5.00;99.90;;;;;;5073675;28;20490;-68
2022/01/20 01:58:41;;;;;;;18.07;5.30;;;5.00;99.90;;;;;;5073315;28;20850;-68
2022/01/20 02:01:09;;;;;;;38.43;7.10;;;5.00;99.90;;;;;;5073546;28;20445;-68
2022/01/20 02:03:44;;;;;;;13.97;4.47;;;5.10;99.90;;;;;;5073584;28;20441;-68
2022/01/20 02:06:29;;;;;;;19.20;5.73;;;5.10;99.90;;;;;;5073205;28;20472;-67
2022/01/20 02:09:10;;;;;;;22.63;5.57;;;5.00;99.90;;;;;;5073632;28;20429;-68
2022/01/20 02:19:55;;;;;;;24.87;6.00;;;5.10;99.90;;;;;;5073550;28;20479;-68
2022/01/20 02:22:22;;;;;;;26.23;6.93;;;5.10;99.90;;;;;;5073460;28;20432;-68
2022/01/20 02:24:49;;;;;;;17.17;4.63;;;5.10;99.90;;;;;;5073396;28;20555;-68
2022/01/20 02:27:16;;;;;;;24.60;6.00;;;5.10;99.90;;;;;;5073302;28;20480;-68
2022/01/20 02:29:44;;;;;;;31.90;5.70;;;5.10;99.90;;;;;;5073376;28;20449;-68
2022/01/20 02:32:11;;;;;;;19.10;4.40;;;5.10;99.90;;;;;;5073415;28;20449;-68
2022/01/20 02:34:38;;;;;;;17.03;4.57;;;5.10;99.90;;;;;;5073252;28;20471;-67
2022/01/20 02:37:11;;;;;;;19.50;4.40;;;5.10;99.90;;;;;;5073267;28;20451;-67
2022/01/20 02:40:03;;;;;;;16.40;4.17;;;5.10;99.90;;;;;;5072995;28;20899;-67
2022/01/20 02:45:14;;;;;;;26.27;3.73;;;5.10;99.90;;;;;;5073227;28;20525;-68
2022/01/20 02:47:40;;;;;;;16.30;3.47;;;5.00;99.90;;;;;;5073147;28;20507;-68
2022/01/20 02:50:08;;;;;;;15.30;4.40;;;5.00;99.90;;;;;;5073194;28;20451;-68
2022/01/20 02:52:36;;;;;;;17.10;3.63;;;5.00;99.90;;;;;;5073118;28;20452;-68
2022/01/20 02:55:03;;;;;;;19.63;3.80;;;4.90;99.90;;;;;;5073078;28;20914;-67
2022/01/20 02:57:29;;;;;;;14.37;3.67;;;4.90;99.90;;;;;;5073074;28;20447;-67
2022/01/20 02:59:56;;;;;;;9.93;2.87;;;5.00;99.90;;;;;;5073057;28;20448;-67
2022/01/20 03:02:23;;;;;;;13.83;3.10;;;5.00;99.90;;;;;;5072813;28;20452;-68
2022/01/20 03:04:51;;;;;;;15.53;4.63;;;5.00;99.90;;;;;;5073044;28;20469;-68
2022/01/20 03:07:21;;;;;;;16.87;3.13;;;5.00;99.90;;;;;;5076184;28;20490;-68
2022/01/20 03:09:49;;;;;;;18.80;3.80;;;5.00;99.90;;;;;;5077386;28;20452;-68
2022/01/20 03:12:16;;;;;;;19.23;3.93;;;4.90;99.90;;;;;;5076730;28;20456;-68
2022/01/20 03:14:43;;;;;;;13.90;3.50;;;4.90;99.90;;;;;;5076268;28;20990;-67
2022/01/20 03:17:09;;;;;;;11.00;3.00;;;4.90;99.90;;;;;;5076741;28;20468;-67
2022/01/20 03:19:36;;;;;;;15.47;4.20;;;4.90;99.90;;;;;;5077825;28;20444;-68
2022/01/20 03:22:03;;;;;;;14.20;3.73;;;4.90;99.90;;;;;;5076905;28;20436;-68
2022/01/20 03:24:30;;;;;;;13.47;3.83;;;4.90;99.90;;;;;;5076545;28;20469;-67
2022/01/20 03:26:58;;;;;;;25.73;7.40;;;5.00;99.90;;;;;;5076455;28;20853;-68
2022/01/20 03:29:25;;;;;;;18.53;5.27;;;4.90;99.90;;;;;;5076456;28;20449;-68
2022/01/20 03:31:51;;;;;;;13.60;5.00;;;4.90;99.90;;;;;;5076222;28;20466;-67
2022/01/20 03:34:21;;;;;;;17.23;6.83;;;4.90;99.90;;;;;;5076425;28;20464;-67
2022/01/20 03:36:48;;;;;;;19.27;5.53;;;4.90;99.90;;;;;;5076374;28;20447;-67
2022/01/20 03:39:15;;;;;;;27.17;6.20;;;4.90;99.90;;;;;;5076299;28;20456;-67
2022/01/20 03:41:42;;;;;;;14.57;5.00;;;4.90;99.90;;;;;;5076248;28;20452;-67
2022/01/20 03:44:10;;;;;;;17.10;4.40;;;4.90;99.90;;;;;;5076232;28;20460;-67
2022/01/20 03:46:36;;;;;;;14.70;4.47;;;5.00;99.90;;;;;;5076230;28;20453;-67
2022/01/20 03:49:09;;;;;;;14.00;4.33;;;5.00;99.90;;;;;;5075866;28;21018;-67
2022/01/20 03:51:36;;;;;;;11.03;3.93;;;4.90;99.90;;;;;;5075891;28;20429;-68
2022/01/20 03:54:04;;;;;;;14.30;4.47;;;4.80;99.90;;;;;;5076013;28;20441;-67
2022/01/20 03:56:31;;;;;;;17.47;3.40;;;4.80;99.90;;;;;;5076160;28;20487;-68
2022/01/20 03:58:58;;;;;;;12.07;4.07;;;4.80;99.90;;;;;;5075896;28;20452;-67
2022/01/20 04:01:26;;;;;;;17.40;3.83;;;4.80;99.90;;;;;;5075872;28;20444;-67
2022/01/20 04:03:53;;;;;;;15.23;3.93;;;4.60;99.90;;;;;;5075797;28;20448;-67
2022/01/20 04:06:19;;;;;;;16.27;4.20;;;4.70;99.90;;;;;;5075658;28;20467;-67
2022/01/20 04:08:48;;;;;;;12.60;4.20;;;4.70;99.90;;;;;;5075927;28;20487;-67
2022/01/20 04:11:17;;;;;;;12.03;2.80;;;4.70;99.90;;;;;;5075740;28;20532;-67
2022/01/20 04:13:44;;;;;;;17.33;4.13;;;4.70;99.90;;;;;;5075599;28;20950;-67
2022/01/20 04:16:14;;;;;;;17.70;4.50;;;4.70;99.90;;;;;;5075423;28;20471;-67
2022/01/20 04:18:52;;;;;;;11.83;3.70;;;4.70;99.90;;;;;;5075833;28;20429;-67
2022/01/20 04:21:18;;;;;;;15.83;3.80;;;4.70;99.90;;;;;;5075397;28;20439;-67
2022/01/20 04:23:45;;;;;;;17.37;4.40;;;4.60;99.90;;;;;;5075471;28;20808;-67
2022/01/20 04:26:12;;;;;;;16.80;4.70;;;4.70;99.90;;;;;;5075540;28;20449;-67
2022/01/20 04:28:39;;;;;;;23.67;5.03;;;4.70;99.90;;;;;;5075132;28;20994;-67
2022/01/20 04:31:05;;;;;;;16.27;4.30;;;4.70;99.90;;;;;;5075552;28;20459;-67
2022/01/20 04:33:32;;;;;;;13.83;4.17;;;4.70;99.90;;;;;;5075167;28;20926;-67
2022/01/20 04:36:00;;;;;;;14.57;4.50;;;4.70;99.90;;;;;;5075387;28;20468;-67
2022/01/20 04:38:27;;;;;;;18.90;5.43;;;4.70;99.90;;;;;;5075360;28;20445;-67
2022/01/20 04:40:54;;;;;;;17.77;5.00;;;4.70;99.90;;;;;;5075265;28;20451;-67
2022/01/20 04:43:21;;;;;;;21.83;6.40;;;4.70;99.90;;;;;;5075260;28;20448;-67
2022/01/20 04:45:54;;;;;;;22.93;5.57;;;4.70;99.90;;;;;;5075513;28;20471;-67
2022/01/20 04:48:31;;;;;;;19.77;4.97;;;4.70;99.90;;;;;;5075742;28;20538;-67
2022/01/20 04:59:11;;;;;;;13.67;3.73;;;4.70;99.90;;;;;;5074816;28;20512;-67
2022/01/20 05:01:44;;;;;;;13.93;4.17;;;4.60;99.90;;;;;;5074666;28;20456;-67
2022/01/20 05:04:11;;;;;;;14.80;3.90;;;4.60;99.90;;;;;;5074505;28;20468;-67
2022/01/20 05:06:39;;;;;;;13.03;4.23;;;4.60;99.90;;;;;;5074093;28;20468;-67
2022/01/20 05:09:08;;;;;;;11.70;3.80;;;4.60;99.90;;;;;;5074127;28;21019;-68
2022/01/20 05:11:41;;;;;;;14.33;4.73;;;4.60;99.90;;;;;;5074482;28;20498;-67
2022/01/20 05:14:08;;;;;;;11.60;5.27;;;4.60;99.90;;;;;;5074366;28;20479;-67
2022/01/20 05:16:34;;;;;;;15.03;4.93;;;4.60;99.90;;;;;;5074317;28;20444;-67
2022/01/20 05:19:01;;;;;;;14.03;5.40;;;4.60;99.90;;;;;;5074277;28;20429;-67
2022/01/20 05:21:28;;;;;;;16.23;4.77;;;4.60;99.90;;;;;;5074213;28;20447;-67
2022/01/20 05:23:54;;;;;;;15.47;4.73;;;4.60;99.90;;;;;;5073815;28;21044;-67
2022/01/20 05:26:22;;;;;;;11.40;3.90;;;4.70;99.90;;;;;;5074197;28;20429;-67
2022/01/20 05:28:49;;;;;;;19.97;3.93;;;4.70;99.90;;;;;;5073253;28;20484;-67
2022/01/20 05:31:16;;;;;;;11.60;3.50;;;4.70;99.90;;;;;;5074039;28;20452;-67
2022/01/20 05:33:43;;;;;;;16.47;4.37;;;4.80;99.90;;;;;;5074564;28;20449;-67
2022/01/20 05:36:10;;;;;;;8.67;3.63;;;4.80;99.90;;;;;;5073972;28;20448;-67
2022/01/20 05:38:36;;;;;;;7.43;2.57;;;4.90;99.90;;;;;;5073870;28;20448;-67
2022/01/20 05:41:03;;;;;;;6.87;2.50;;;4.90;99.90;;;;;;5073564;28;20444;-67
2022/01/20 05:43:31;;;;;;;8.60;3.10;;;4.90;99.90;;;;;;5074000;28;20456;-67
2022/01/20 05:45:58;;;;;;;6.40;1.90;;;4.90;99.90;;;;;;5073849;28;20478;-67
2022/01/20 05:48:33;;;;;;;5.43;2.10;;;4.90;99.90;;;;;;5074579;28;20464;-67
2022/01/20 05:51:00;;;;;;;10.67;2.17;;;4.90;99.90;;;;;;5073793;28;20439;-67
2022/01/20 05:53:27;;;;;;;7.23;2.33;;;5.00;99.90;;;;;;5073692;28;20444;-67
2022/01/20 05:55:55;;;;;;;10.67;2.50;;;5.00;99.90;;;;;;5073338;28;20469;-66
2022/01/20 05:58:22;;;;;;;7.20;2.60;;;5.00;99.90;;;;;;5073358;28;20498;-67
2022/01/20 06:00:50;;;;;;;10.80;2.83;;;5.00;99.90;;;;;;5073608;28;20494;-67
2022/01/20 06:06:02;;;;;;;8.03;2.50;;;4.90;99.90;;;;;;5073382;28;20985;-67
2022/01/20 06:08:29;;;;;;;7.80;2.63;;;4.90;99.90;;;;;;5073151;28;20491;-67
2022/01/20 06:10:55;;;;;;;8.80;3.00;;;5.00;99.90;;;;;;5073204;28;20934;-67
2022/01/20 06:13:22;;;;;;;5.47;2.90;;;4.90;99.90;;;;;;5073471;28;20448;-67
2022/01/20 06:15:50;;;;;;;8.80;2.90;;;4.90;99.90;;;;;;5073388;28;20461;-67
2022/01/20 06:18:17;;;;;;;9.10;3.90;;;4.90;99.90;;;;;;5073438;28;20468;-67
2022/01/20 06:20:44;;;;;;;7.47;2.87;;;4.90;99.90;;;;;;5073077;28;20866;-67
2022/01/20 06:23:11;;;;;;;8.83;2.87;;;4.90;99.90;;;;;;5073437;28;20448;-67
2022/01/20 06:25:38;;;;;;;8.73;3.93;;;4.90;99.90;;;;;;5073334;28;20464;-67
2022/01/20 06:28:06;;;;;;;12.30;4.27;;;4.90;99.90;;;;;;5073345;28;20529;-67
2022/01/20 06:30:33;;;;;;;11.13;4.50;;;4.90;99.90;;;;;;5073054;28;20942;-67
2022/01/20 06:33:02;;;;;;;15.00;3.40;;;4.90;99.90;;;;;;5073354;28;20471;-67
2022/01/20 06:35:29;;;;;;;14.97;4.40;;;4.90;99.90;;;;;;5073335;28;20970;-67
2022/01/20 06:37:56;;;;;;;16.00;3.67;;;4.90;99.90;;;;;;5073274;28;20451;-67
2022/01/20 06:40:23;;;;;;;6.43;2.77;;;5.00;99.90;;;;;;5074861;28;20971;-67
2022/01/20 06:42:50;;;;;;;11.80;3.07;;;5.00;99.90;;;;;;5077042;28;20935;-67
2022/01/20 06:45:19;;;;;;;12.43;3.03;;;4.90;99.90;;;;;;5077901;28;20467;-66
2022/01/20 06:47:45;;;;;;;7.63;2.77;;;5.00;99.90;;;;;;5077141;28;20481;-67
2022/01/20 06:50:14;;;;;;;11.30;2.60;;;5.00;99.90;;;;;;5077211;28;20452;-67
2022/01/20 06:52:42;;;;;;;8.10;2.90;;;5.00;99.90;;;;;;5076806;28;20447;-67
2022/01/20 06:55:10;;;;;;;9.40;2.57;;;5.00;99.90;;;;;;5077038;28;20464;-67
2022/01/20 06:57:38;;;;;;;6.20;2.30;;;5.10;99.90;;;;;;5077000;28;20815;-67
2022/01/20 07:00:07;;;;;;;6.20;2.87;;;5.10;99.90;;;;;;5076965;28;20444;-67
2022/01/20 07:02:34;;;;;;;9.67;2.83;;;5.10;99.90;;;;;;5076948;28;20455;-67
2022/01/20 07:05:01;;;;;;;11.50;2.33;;;5.10;99.90;;;;;;5078288;28;20855;-66
2022/01/20 07:07:30;;;;;;;8.97;2.90;;;5.10;99.90;;;;;;5076356;28;20453;-67
2022/01/20 07:09:57;;;;;;;9.60;2.50;;;5.10;99.90;;;;;;5076800;28;20444;-67
2022/01/20 07:12:24;;;;;;;10.30;2.40;;;5.10;99.90;;;;;;5076752;28;20440;-67
2022/01/20 07:14:51;;;;;;;14.27;2.43;;;5.10;99.90;;;;;;5076641;28;20468;-66
2022/01/20 07:17:18;;;;;;;9.07;2.03;;;5.10;99.90;;;;;;5076639;28;20444;-67
2022/01/20 07:19:45;;;;;;;12.07;2.03;;;5.10;99.90;;;;;;5076570;28;20448;-67
2022/01/20 07:22:12;;;;;;;10.43;2.70;;;5.00;99.90;;;;;;5076202;28;20449;-67
2022/01/20 07:24:40;;;;;;;8.40;2.30;;;5.00;99.90;;;;;;5076419;28;20468;-66
2022/01/20 07:27:07;;;;;;;11.83;2.53;;;4.90;99.90;;;;;;5076487;28;20451;-67
2022/01/20 07:29:34;;;;;;;15.57;3.37;;;5.00;99.90;;;;;;5076383;28;20488;-67
2022/01/20 07:32:03;;;;;;;14.10;3.37;;;5.00;99.90;;;;;;5076303;28;20452;-67
2022/01/20 07:34:30;;;;;;;10.17;4.23;;;4.90;99.90;;;;;;5076238;28;20497;-67
2022/01/20 07:36:56;;;;;;;13.43;2.37;;;4.90;99.90;;;;;;5076313;28;20444;-67
2022/01/20 07:39:23;;;;;;;14.40;2.30;;;5.00;99.90;;;;;;5076193;28;20850;-67
2022/01/20 07:41:51;;;;;;;20.67;3.33;;;5.00;99.90;;;;;;5076251;28;20444;-67
2022/01/20 07:44:19;;;;;;;12.67;2.47;;;5.10;99.90;;;;;;5076054;28;20460;-66
2022/01/20 07:46:46;;;;;;;10.33;2.50;;;5.10;99.90;;;;;;5076104;28;20495;-67
2022/01/20 07:49:13;;;;;;;14.20;2.47;;;5.10;99.90;;;;;;5075943;28;20480;-67
2022/01/20 07:51:40;;;;;;;12.93;3.53;;;5.20;99.90;;;;;;5074878;28;20441;-67
2022/01/20 07:54:07;;;;;;;12.43;1.97;;;5.20;99.90;;;;;;5075866;28;20464;-66
2022/01/20 07:56:34;;;;;;;14.30;2.60;;;5.20;99.90;;;;;;5075917;28;20467;-67
2022/01/20 07:59:02;;;;;;;13.90;2.73;;;5.20;99.90;;;;;;5075841;28;20811;-67
2022/01/20 08:01:28;;;;;;;12.10;2.60;;;5.20;99.90;;;;;;5075800;28;20448;-67
2022/01/20 08:03:56;;;;;;;8.73;2.60;;;5.30;99.90;;;;;;5075408;28;20930;-67
2022/01/20 08:06:23;;;;;;;6.53;2.27;;;5.20;99.90;;;;;;5075327;28;20460;-67
2022/01/20 08:08:50;;;;;;;18.33;2.50;;;5.20;99.90;;;;;;5075620;28;20542;-67
2022/01/20 08:11:17;;;;;;;14.17;2.70;;;5.30;99.90;;;;;;5075685;28;20451;-67
2022/01/20 08:13:44;;;;;;;9.40;2.90;;;5.30;99.90;;;;;;5075645;28;20440;-67
2022/01/20 08:16:12;;;;;;;13.00;2.30;;;5.20;99.90;;;;;;5075192;28;20425;-67
2022/01/20 08:18:39;;;;;;;6.00;2.00;;;5.20;99.90;;;;;;5076089;28;20448;-67
2022/01/20 08:21:06;;;;;;;10.07;2.27;;;5.10;99.90;;;;;;5076207;28;20457;-67
2022/01/20 08:23:32;;;;;;;12.23;4.00;;;5.00;99.90;;;;;;5075423;28;20444;-67
2022/01/20 08:25:59;;;;;;;17.23;2.57;;;5.10;99.90;;;;;;5075323;28;20487;-67
2022/01/20 08:28:26;;;;;;;9.10;2.53;;;5.10;99.90;;;;;;5075225;28;20493;-67
2022/01/20 08:30:53;;;;;;;13.70;3.10;;;5.10;99.90;;;;;;5075258;28;20455;-67
2022/01/20 08:33:21;;;;;;;10.07;2.33;;;5.00;99.90;;;;;;5075221;28;20449;-67
2022/01/20 08:35:48;;;;;;;16.30;3.90;;;5.00;99.90;;;;;;5075132;28;20461;-66
2022/01/20 08:38:15;;;;;;;10.10;3.73;;;5.00;99.90;;;;;;5074803;28;20956;-67
2022/01/20 08:40:42;;;;;;;11.97;3.70;;;5.00;99.90;;;;;;5075175;28;20903;-67
2022/01/20 08:43:09;;;;;;;12.17;4.10;;;5.10;99.90;;;;;;5074726;28;20938;-67
2022/01/20 08:45:38;;;;;;;9.70;2.43;;;5.10;99.90;;;;;;5074887;28;20504;-66
2022/01/20 08:48:05;;;;;;;14.57;3.23;;;5.20;99.90;;;;;;5074856;28;20552;-67
2022/01/20 08:50:34;;;;;;;7.00;2.40;;;5.30;99.90;;;;;;5074883;28;20444;-67
2022/01/20 08:53:01;;;;;;;12.33;3.23;;;5.40;99.90;;;;;;5074879;28;20466;-67
2022/01/20 08:55:28;;;;;;;11.53;2.70;;;5.40;99.90;;;;;;5074388;28;20879;-66
2022/01/20 08:57:56;;;;;;;13.07;2.90;;;5.40;99.90;;;;;;5074762;28;20441;-66
2022/01/20 09:00:26;;;;;;;10.63;2.77;;;5.40;99.90;;;;;;5074682;28;20445;-67
2022/01/20 09:02:53;;;;;;;7.67;2.37;;;5.50;99.90;;;;;;5074326;28;20451;-67
2022/01/20 09:05:20;;;;;;;9.77;2.60;;;5.60;99.90;;;;;;5074422;28;20471;-67
2022/01/20 09:07:49;;;;;;;9.20;2.13;;;5.60;99.90;;;;;;5074417;28;20805;-67
2022/01/20 09:10:19;;;;;;;8.90;2.17;;;5.70;99.90;;;;;;5074515;28;20472;-67
2022/01/20 09:15:32;;;;;;;6.47;2.00;;;5.60;99.90;;;;;;5074137;28;20551;-67
2022/01/20 09:18:01;;;;;;;6.13;1.93;;;5.60;99.90;;;;;;5074297;28;20452;-67
2022/01/20 09:20:29;;;;;;;7.00;1.50;;;5.60;99.90;;;;;;5074238;28;20448;-67
2022/01/20 09:22:58;;;;;;;4.90;1.47;;;5.50;99.90;;;;;;5074269;28;20441;-67
2022/01/20 09:25:25;;;;;;;7.13;2.10;;;5.50;99.90;;;;;;5074092;28;20464;-67
2022/01/20 09:27:55;;;;;;;9.10;2.27;;;5.50;99.90;;;;;;5074119;28;20490;-67
2022/01/20 09:30:23;;;;;;;6.43;2.63;;;5.50;99.90;;;;;;5074030;28;20515;-67
2022/01/20 09:33:01;;;;;;;8.70;1.90;;;5.50;99.90;;;;;;5074052;28;20440;-67
2022/01/20 09:35:31;;;;;;;6.57;2.20;;;5.40;99.90;;;;;;5074010;28;20547;-68
2022/01/20 09:37:59;;;;;;;7.13;2.23;;;5.50;99.90;;;;;;5073969;28;20493;-68
2022/01/20 09:40:27;;;;;;;7.07;2.17;;;5.50;99.90;;;;;;5073962;28;20444;-68
2022/01/20 09:42:53;;;;;;;6.80;2.30;;;5.60;99.90;;;;;;5073883;28;20452;-68
2022/01/20 09:45:21;;;;;;;7.67;1.80;;;5.80;99.90;;;;;;5073783;28;20468;-67
2022/01/20 09:47:48;;;;;;;6.57;2.53;;;5.90;99.10;;;;;;5073552;28;20445;-68
2022/01/20 09:50:19;;;;;;;10.43;4.20;;;5.90;97.70;;;;;;5073721;28;20845;-68
2022/01/20 09:52:46;;;;;;;8.03;3.80;;;6.00;97.40;;;;;;5074329;28;20528;-68
2022/01/20 09:55:15;;;;;;;13.00;3.60;;;6.00;96.60;;;;;;5073362;28;20966;-67
2022/01/20 09:57:42;;;;;;;9.33;3.40;;;6.10;96.90;;;;;;5073469;28;20818;-67
2022/01/20 10:00:12;;;;;;;10.83;3.80;;;6.10;97.10;;;;;;5073726;28;20447;-67
2022/01/20 10:02:52;;;;;;;10.60;2.63;;;6.10;96.00;;;;;;5073682;28;20429;-67
2022/01/20 10:05:30;;;;;;;12.17;4.00;;;6.10;95.90;;;;;;5073489;28;20475;-67
2022/01/20 10:08:05;;;;;;;11.53;4.73;;;6.20;96.70;;;;;;5073618;28;20499;-67
2022/01/20 10:10:45;;;;;;;13.80;4.73;;;6.20;97.10;;;;;;5073535;28;20467;-67
2022/01/20 10:13:14;;;;;;;8.97;4.80;;;6.20;96.90;;;;;;5073246;28;20463;-67
2022/01/20 10:15:41;;;;;;;9.33;3.80;;;6.30;97.40;;;;;;5073052;28;20476;-67
2022/01/20 10:18:10;;;;;;;7.33;3.13;;;6.40;97.70;;;;;;5073456;28;20455;-67
2022/01/20 10:20:49;;;;;;;8.77;2.40;;;6.50;97.80;;;;;;5073475;28;20459;-67
2022/01/20 10:23:35;;;;;;;6.83;2.30;;;6.50;97.90;;;;;;5073183;28;20899;-67
2022/01/20 10:26:12;;;;;;;8.47;3.30;;;6.50;97.30;;;;;;5073349;28;20559;-67
2022/01/20 10:28:54;;;;;;;9.10;3.80;;;6.40;96.80;;;;;;5073379;28;20428;-67
2022/01/20 10:31:33;;;;;;;7.33;3.53;;;6.50;97.50;;;;;;5073452;28;20435;-67
2022/01/20 10:34:00;;;;;;;8.93;2.23;;;6.60;98.00;;;;;;5073634;28;20433;-66
2022/01/20 10:36:27;;;;;;;10.23;2.67;;;6.60;98.30;;;;;;5073391;28;20440;-67
2022/01/20 10:38:55;;;;;;;9.53;1.77;;;6.80;98.80;;;;;;5073299;28;20449;-67
2022/01/20 10:41:35;;;;;;;8.97;2.53;;;6.90;98.50;;;;;;5073339;28;20452;-67
2022/01/20 10:44:07;;;;;;;4.77;1.77;;;7.10;98.60;;;;;;5073264;28;20444;-66
2022/01/20 10:46:45;;;;;;;5.73;2.00;;;7.20;98.10;;;;;;5073315;28;20436;-67
2022/01/20 10:49:12;;;;;;;10.83;1.87;;;7.30;98.00;;;;;;5073214;28;20848;-67
2022/01/20 10:51:39;;;;;;;14.00;2.50;;;7.30;97.70;;;;;;5073270;28;20443;-67
2022/01/20 10:54:10;;;;;;;10.83;2.37;;;7.30;97.40;;;;;;5073124;28;20468;-67
2022/01/20 10:56:49;;;;;;;6.80;1.90;;;7.30;96.90;;;;;;5072880;28;20437;-67
2022/01/20 10:59:16;;;;;;;15.07;2.53;;;7.20;96.60;;;;;;5073133;28;20429;-67
2022/01/20 11:01:43;;;;;;;12.50;3.23;;;7.20;96.40;;;;;;5073094;28;20445;-67
2022/01/20 11:04:10;;;;;;;21.00;3.13;;;7.10;96.90;;;;;;5073050;28;20480;-66
2022/01/20 11:06:39;;;;;;;12.30;2.87;;;7.00;96.80;;;;;;5072710;28;20468;-67
2022/01/20 11:09:08;;;;;;;13.90;2.70;;;6.80;96.60;;;;;;5072831;28;20477;-67
2022/01/20 11:11:36;;;;;;;8.77;2.70;;;6.70;97.70;;;;;;5072762;28;20934;-67
2022/01/20 11:14:04;;;;;;;5.43;1.80;;;6.60;98.50;;;;;;5072885;28;20425;-67
2022/01/20 11:16:38;;;;;;;7.83;2.30;;;6.50;98.50;;;;;;5072907;28;20452;-67
2022/01/20 11:19:15;;;;;;;11.63;2.30;;;6.40;98.50;;;;;;5073004;28;20425;-67
2022/01/20 11:21:43;;;;;;;6.10;2.07;;;6.10;99.30;;;;;;5072914;28;20507;-67
2022/01/20 11:24:17;;;;;;;5.23;1.63;;;5.90;99.10;;;;;;5072736;28;20556;-66
2022/01/20 11:26:53;;;;;;;7.30;1.60;;;5.50;99.50;;;;;;5073630;28;20429;-67
2022/01/20 11:29:22;;;;;;;9.93;1.73;;;5.30;99.90;;;;;;5076470;28;20494;-67
2022/01/20 11:31:50;;;;;;;7.53;1.77;;;5.20;99.90;;;;;;5076423;28;20451;-67
2022/01/20 11:34:17;;;;;;;4.07;1.60;;;5.20;99.90;;;;;;5076452;28;20460;-67
2022/01/20 11:36:45;;;;;;;10.70;1.50;;;5.20;99.90;;;;;;5076319;28;20457;-68
2022/01/20 11:39:12;;;;;;;12.70;2.03;;;5.30;99.90;;;;;;5076291;28;20440;-68
2022/01/20 11:41:43;;;;;;;4.97;1.43;;;5.30;99.90;;;;;;5076236;28;20440;-68
2022/01/20 11:44:12;;;;;;;11.13;2.33;;;5.50;99.90;;;;;;5076248;28;20464;-68
2022/01/20 11:46:43;;;;;;;10.40;2.03;;;5.70;99.90;;;;;;5076180;28;20436;-68
2022/01/20 11:49:11;;;;;;;10.30;2.60;;;5.90;99.90;;;;;;5076184;28;20534;-69
2022/01/20 11:51:47;;;;;;;9.17;2.30;;;6.20;99.90;;;;;;5076051;28;20441;-69
2022/01/20 11:54:18;;;;;;;12.77;4.00;;;6.50;99.90;;;;;;5076056;28;20503;-68
2022/01/20 11:56:45;;;;;;;6.80;2.60;;;6.60;99.30;;;;;;5075713;28;20444;-68
2022/01/20 11:59:15;;;;;;;15.03;2.30;;;6.90;98.40;;;;;;5076051;28;20494;-68
2022/01/20 12:01:52;;;;;;;10.80;2.37;;;7.10;96.60;;;;;;5075973;28;20448;-68
2022/01/20 12:04:30;;;;;;;11.93;2.47;;;7.40;95.30;;;;;;5075909;28;20467;-67
2022/01/20 12:06:57;;;;;;;16.33;2.60;;;7.60;94.70;;;;;;5075501;28;20453;-67
2022/01/20 12:09:30;;;;;;;7.37;2.27;;;7.90;93.40;;;;;;5075735;28;20485;-67
2022/01/20 12:11:57;;;;;;;14.53;3.00;;;8.20;92.30;;;;;;5075775;28;20437;-67
2022/01/20 12:14:34;;;;;;;10.43;2.70;;;8.50;91.90;;;;;;5075553;28;20468;-68
2022/01/20 12:17:04;;;;;;;16.47;2.73;;;8.80;91.10;;;;;;5075674;28;20429;-68
2022/01/20 12:19:31;;;;;;;12.27;3.77;;;8.90;87.30;;;;;;5075902;28;20455;-68
2022/01/20 12:21:58;;;;;;;11.83;4.20;;;8.70;88.40;;;;;;5075559;28;20449;-67
2022/01/20 12:24:25;;;;;;;10.40;2.00;;;8.50;89.20;;;;;;5075376;28;20469;-67
2022/01/20 12:26:52;;;;;;;10.70;3.13;;;8.20;90.40;;;;;;5075411;28;20813;-67
2022/01/20 12:29:18;;;;;;;6.80;2.10;;;7.90;90.70;;;;;;5075109;28;20997;-67
2022/01/20 12:31:47;;;;;;;14.43;2.50;;;7.70;91.50;;;;;;5075479;28;20445;-67
2022/01/20 12:34:15;;;;;;;8.90;2.47;;;7.70;92.00;;;;;;5075248;28;20559;-67
2022/01/20 12:36:51;;;;;;;13.03;2.97;;;7.40;91.00;;;;;;5075213;28;20440;-67
2022/01/20 12:39:23;;;;;;;9.50;3.07;;;7.10;92.10;;;;;;5074895;28;20437;-67
2022/01/20 12:41:55;;;;;;;6.97;2.43;;;7.00;92.00;;;;;;5075151;28;20595;-67
2022/01/20 12:44:23;;;;;;;7.90;2.00;;;7.20;92.20;;;;;;5075110;28;20526;-67
2022/01/20 12:46:50;;;;;;;6.93;2.47;;;7.60;91.30;;;;;;5075043;28;20437;-67
2022/01/20 12:49:19;;;;;;;9.33;2.10;;;8.10;91.10;;;;;;5074893;28;20825;-67
2022/01/20 12:52:01;;;;;;;11.67;2.50;;;8.40;89.30;;;;;;5074969;28;20432;-67
2022/01/20 12:57:50;;;;;;;8.37;1.97;;;8.40;84.60;;;;;;5072326;28;20457;-67
2022/01/20 13:00:40;;;;;;;14.63;2.80;;;8.30;86.10;;;;;;5073175;28;20522;-68
2022/01/20 13:06:45;;;;;;;6.53;2.40;;;8.90;84.70;;;;;;5072228;28;20810;-67
2022/01/20 13:09:30;;;;;;;9.30;2.80;;;8.80;77.80;;;;;;5073078;28;20437;-67
2022/01/20 13:11:59;;;;;;;17.90;3.00;;;8.80;75.80;;;;;;5074458;28;20432;-67
2022/01/20 13:14:37;;;;;;;7.30;2.40;;;8.70;76.40;;;;;;5074402;28;20587;-67
2022/01/20 13:17:05;;;;;;;5.53;1.83;;;8.90;76.80;;;;;;5074319;28;20452;-67
2022/01/20 13:19:37;;;;;;;13.43;4.60;;;8.60;75.50;;;;;;5074412;28;20448;-67
2022/01/20 13:22:08;;;;;;;8.40;1.90;;;8.60;76.80;;;;;;5074622;28;20436;-67
2022/01/20 13:24:36;;;;;;;8.63;2.27;;;8.70;77.40;;;;;;5074680;28;20464;-66
2022/01/20 13:27:06;;;;;;;5.33;1.97;;;8.70;78.10;;;;;;5074196;28;20449;-67
2022/01/20 13:29:42;;;;;;;12.10;1.70;;;8.50;74.70;;;;;;5073892;28;20903;-66
2022/01/20 13:32:09;;;;;;;8.90;2.10;;;8.20;76.60;;;;;;5073995;28;21013;-67
2022/01/20 13:34:36;;;;;;;13.20;5.00;;;8.00;79.60;;;;;;5074398;28;20860;-67
2022/01/20 13:37:13;;;;;;;17.03;5.80;;;8.00;82.80;;;;;;5074394;28;21015;-68
2022/01/20 13:39:41;;;;;;;12.13;5.40;;;7.90;84.00;;;;;;5074340;28;20468;-67
2022/01/20 13:42:20;;;;;;;13.70;5.43;;;7.80;86.30;;;;;;5073990;28;20953;-67
2022/01/20 13:45:12;;;;;;;10.03;4.10;;;7.70;88.70;;;;;;5074247;28;20465;-67
2022/01/20 13:47:47;;;;;;;18.50;6.50;;;7.70;89.10;;;;;;5074182;28;20528;-67
2022/01/20 13:50:17;;;;;;;13.07;3.77;;;7.40;89.50;;;;;;5073189;28;20988;-67